sensor_id;sensor_type;location;lat;lon;timestamp;temperature;humidity
71291;DHT22;59073;51.994;4.448;2023-09-08T00:00:29;21.33;82.05
71291;DHT22;59073;51.994;4.448;2023-09-08T00:02:55;21.51;80.94
71291;DHT22;59073;51.994;4.448;2023-09-08T00:05:20;21.55;79.40
71291;DHT22;59073;51.994;4.448;2023-09-08T00:07:46;21.45;79.20
71291;DHT22;59073;51.994;4.448;2023-09-08T00:10:11;21.33;80.87
71291;DHT22;59073;51.994;4.448;2023-09-08T00:12:37;21.24;81.52
71291;DHT22;59073;51.994;4.448;2023-09-08T00:15:03;21.20;81.45
71291;DHT22;59073;51.994;4.448;2023-09-08T00:17:29;21.27;80.73
71291;DHT22;59073;51.994;4.448;2023-09-08T00:19:56;21.38;78.92
71291;DHT22;59073;51.994;4.448;2023-09-08T00:22:22;21.21;77.57
71291;DHT22;59073;51.994;4.448;2023-09-08T00:24:47;21.11;79.45
71291;DHT22;59073;51.994;4.448;2023-09-08T00:27:13;21.20;79.75
71291;DHT22;59073;51.994;4.448;2023-09-08T00:29:39;21.38;78.93
71291;DHT22;59073;51.994;4.448;2023-09-08T00:32:04;21.47;78.54
71291;DHT22;59073;51.994;4.448;2023-09-08T00:34:30;21.44;79.38
71291;DHT22;59073;51.994;4.448;2023-09-08T00:36:56;21.41;79.26
71291;DHT22;59073;51.994;4.448;2023-09-08T00:39:21;21.37;79.00
71291;DHT22;59073;51.994;4.448;2023-09-08T00:41:47;21.11;79.60
71291;DHT22;59073;51.994;4.448;2023-09-08T00:44:12;21.02;80.46
71291;DHT22;59073;51.994;4.448;2023-09-08T00:46:39;21.02;80.25
71291;DHT22;59073;51.994;4.448;2023-09-08T00:49:05;20.93;80.79
71291;DHT22;59073;51.994;4.448;2023-09-08T00:51:31;20.77;82.02
71291;DHT22;59073;51.994;4.448;2023-09-08T00:53:57;20.66;82.81
71291;DHT22;59073;51.994;4.448;2023-09-08T00:56:23;20.53;83.70
71291;DHT22;59073;51.994;4.448;2023-09-08T00:58:49;20.39;84.72
71291;DHT22;59073;51.994;4.448;2023-09-08T01:01:15;20.26;85.19
71291;DHT22;59073;51.994;4.448;2023-09-08T01:03:42;20.14;83.83
71291;DHT22;59073;51.994;4.448;2023-09-08T01:06:08;20.20;82.89
71291;DHT22;59073;51.994;4.448;2023-09-08T01:08:36;20.35;82.00
71291;DHT22;59073;51.994;4.448;2023-09-08T01:11:05;20.49;81.64
71291;DHT22;59073;51.994;4.448;2023-09-08T01:13:32;20.61;81.23
71291;DHT22;59073;51.994;4.448;2023-09-08T01:15:58;20.71;80.83
71291;DHT22;59073;51.994;4.448;2023-09-08T01:18:23;20.76;80.36
71291;DHT22;59073;51.994;4.448;2023-09-08T01:21:18;20.84;80.43
71291;DHT22;59073;51.994;4.448;2023-09-08T01:24:17;21.06;80.21
71291;DHT22;59073;51.994;4.448;2023-09-08T01:26:48;21.28;79.45
71291;DHT22;59073;51.994;4.448;2023-09-08T01:29:16;21.33;78.32
71291;DHT22;59073;51.994;4.448;2023-09-08T01:31:42;21.34;77.94
71291;DHT22;59073;51.994;4.448;2023-09-08T01:34:08;21.13;78.67
71291;DHT22;59073;51.994;4.448;2023-09-08T01:36:35;20.89;80.49
71291;DHT22;59073;51.994;4.448;2023-09-08T01:39:01;20.62;83.54
71291;DHT22;59073;51.994;4.448;2023-09-08T01:41:27;20.48;84.10
71291;DHT22;59073;51.994;4.448;2023-09-08T01:43:52;20.38;83.29
71291;DHT22;59073;51.994;4.448;2023-09-08T01:46:18;20.20;82.17
71291;DHT22;59073;51.994;4.448;2023-09-08T01:48:43;20.11;82.43
71291;DHT22;59073;51.994;4.448;2023-09-08T01:51:08;20.05;82.61
71291;DHT22;59073;51.994;4.448;2023-09-08T01:53:34;20.12;82.33
71291;DHT22;59073;51.994;4.448;2023-09-08T01:55:59;20.15;82.49
71291;DHT22;59073;51.994;4.448;2023-09-08T01:58:25;20.29;82.21
71291;DHT22;59073;51.994;4.448;2023-09-08T02:00:50;20.42;81.70
71291;DHT22;59073;51.994;4.448;2023-09-08T02:03:16;20.43;81.64
71291;DHT22;59073;51.994;4.448;2023-09-08T02:05:42;20.66;80.78
71291;DHT22;59073;51.994;4.448;2023-09-08T02:08:07;20.66;80.76
71291;DHT22;59073;51.994;4.448;2023-09-08T02:10:33;20.62;81.54
71291;DHT22;59073;51.994;4.448;2023-09-08T02:12:58;20.49;81.86
71291;DHT22;59073;51.994;4.448;2023-09-08T02:15:23;20.25;82.47
71291;DHT22;59073;51.994;4.448;2023-09-08T02:17:53;20.17;82.42
71291;DHT22;59073;51.994;4.448;2023-09-08T02:20:20;20.08;82.61
71291;DHT22;59073;51.994;4.448;2023-09-08T02:22:45;19.98;83.03
71291;DHT22;59073;51.994;4.448;2023-09-08T02:25:13;19.94;83.65
71291;DHT22;59073;51.994;4.448;2023-09-08T02:27:39;19.91;84.11
71291;DHT22;59073;51.994;4.448;2023-09-08T02:30:05;19.90;84.44
71291;DHT22;59073;51.994;4.448;2023-09-08T02:32:30;19.84;84.64
71291;DHT22;59073;51.994;4.448;2023-09-08T02:34:56;19.83;84.64
71291;DHT22;59073;51.994;4.448;2023-09-08T02:37:21;19.90;83.41
71291;DHT22;59073;51.994;4.448;2023-09-08T02:39:46;19.81;83.70
71291;DHT22;59073;51.994;4.448;2023-09-08T02:42:12;19.77;84.09
71291;DHT22;59073;51.994;4.448;2023-09-08T02:44:37;19.69;84.41
71291;DHT22;59073;51.994;4.448;2023-09-08T02:47:03;19.69;84.74
71291;DHT22;59073;51.994;4.448;2023-09-08T02:49:28;19.57;85.12
71291;DHT22;59073;51.994;4.448;2023-09-08T02:51:53;19.52;85.32
71291;DHT22;59073;51.994;4.448;2023-09-08T02:54:19;19.57;85.19
71291;DHT22;59073;51.994;4.448;2023-09-08T02:56:44;19.57;84.22
71291;DHT22;59073;51.994;4.448;2023-09-08T02:59:10;19.57;84.37
71291;DHT22;59073;51.994;4.448;2023-09-08T03:01:35;19.75;84.46
71291;DHT22;59073;51.994;4.448;2023-09-08T03:04:01;19.91;83.89
71291;DHT22;59073;51.994;4.448;2023-09-08T03:06:26;19.98;83.54
71291;DHT22;59073;51.994;4.448;2023-09-08T03:08:51;20.04;83.17
71291;DHT22;59073;51.994;4.448;2023-09-08T03:11:17;20.28;82.73
71291;DHT22;59073;51.994;4.448;2023-09-08T03:13:42;20.26;80.49
71291;DHT22;59073;51.994;4.448;2023-09-08T03:16:08;20.36;80.68
71291;DHT22;59073;51.994;4.448;2023-09-08T03:18:35;20.56;80.17
71291;DHT22;59073;51.994;4.448;2023-09-08T03:21:02;20.55;79.75
71291;DHT22;59073;51.994;4.448;2023-09-08T03:23:38;20.41;80.80
71291;DHT22;59073;51.994;4.448;2023-09-08T03:26:04;20.20;81.75
71291;DHT22;59073;51.994;4.448;2023-09-08T03:28:30;19.97;82.53
71291;DHT22;59073;51.994;4.448;2023-09-08T03:30:56;19.80;83.58
71291;DHT22;59073;51.994;4.448;2023-09-08T03:33:21;19.70;84.38
71291;DHT22;59073;51.994;4.448;2023-09-08T03:35:47;19.63;84.68
71291;DHT22;59073;51.994;4.448;2023-09-08T03:38:12;19.60;84.87
71291;DHT22;59073;51.994;4.448;2023-09-08T03:40:38;19.74;84.36
71291;DHT22;59073;51.994;4.448;2023-09-08T03:43:04;19.90;83.33
71291;DHT22;59073;51.994;4.448;2023-09-08T03:45:29;19.91;82.37
71291;DHT22;59073;51.994;4.448;2023-09-08T03:47:54;19.73;82.71
71291;DHT22;59073;51.994;4.448;2023-09-08T03:50:20;19.66;83.43
71291;DHT22;59073;51.994;4.448;2023-09-08T03:52:45;19.59;83.65
71291;DHT22;59073;51.994;4.448;2023-09-08T03:55:11;19.70;83.40
71291;DHT22;59073;51.994;4.448;2023-09-08T03:57:36;19.83;82.86
71291;DHT22;59073;51.994;4.448;2023-09-08T04:00:02;20.00;82.24
71291;DHT22;59073;51.994;4.448;2023-09-08T04:02:29;19.85;82.50
71291;DHT22;59073;51.994;4.448;2023-09-08T04:04:55;19.91;82.64
71291;DHT22;59073;51.994;4.448;2023-09-08T04:07:20;19.92;82.73
71291;DHT22;59073;51.994;4.448;2023-09-08T04:09:46;19.95;82.84
71291;DHT22;59073;51.994;4.448;2023-09-08T04:12:11;19.95;82.98
71291;DHT22;59073;51.994;4.448;2023-09-08T04:14:37;20.04;82.52
71291;DHT22;59073;51.994;4.448;2023-09-08T04:17:02;20.05;81.17
71291;DHT22;59073;51.994;4.448;2023-09-08T04:19:28;20.12;81.19
71291;DHT22;59073;51.994;4.448;2023-09-08T04:21:53;20.26;80.86
71291;DHT22;59073;51.994;4.448;2023-09-08T04:24:19;20.28;80.70
71291;DHT22;59073;51.994;4.448;2023-09-08T04:26:45;20.07;81.26
71291;DHT22;59073;51.994;4.448;2023-09-08T04:29:11;19.94;82.26
71291;DHT22;59073;51.994;4.448;2023-09-08T04:31:36;19.75;82.93
71291;DHT22;59073;51.994;4.448;2023-09-08T04:34:01;19.60;83.87
71291;DHT22;59073;51.994;4.448;2023-09-08T04:36:27;19.49;84.47
71291;DHT22;59073;51.994;4.448;2023-09-08T04:38:52;19.45;84.41
71291;DHT22;59073;51.994;4.448;2023-09-08T04:41:18;19.42;84.90
71291;DHT22;59073;51.994;4.448;2023-09-08T04:43:43;19.53;84.35
71291;DHT22;59073;51.994;4.448;2023-09-08T04:46:08;19.54;84.17
71291;DHT22;59073;51.994;4.448;2023-09-08T04:48:34;19.57;83.88
71291;DHT22;59073;51.994;4.448;2023-09-08T04:50:59;19.54;84.11
71291;DHT22;59073;51.994;4.448;2023-09-08T04:53:25;19.64;83.74
71291;DHT22;59073;51.994;4.448;2023-09-08T04:55:50;19.81;83.53
71291;DHT22;59073;51.994;4.448;2023-09-08T04:58:16;20.02;83.06
71291;DHT22;59073;51.994;4.448;2023-09-08T05:00:41;20.01;81.12
71291;DHT22;59073;51.994;4.448;2023-09-08T05:03:07;19.83;80.73
71291;DHT22;59073;51.994;4.448;2023-09-08T05:05:32;19.74;81.51
71291;DHT22;59073;51.994;4.448;2023-09-08T05:07:58;19.74;81.89
71291;DHT22;59073;51.994;4.448;2023-09-08T05:10:23;19.88;81.07
71291;DHT22;59073;51.994;4.448;2023-09-08T05:12:49;19.92;81.00
71291;DHT22;59073;51.994;4.448;2023-09-08T05:15:15;20.04;81.11
71291;DHT22;59073;51.994;4.448;2023-09-08T05:17:42;20.08;81.13
71291;DHT22;59073;51.994;4.448;2023-09-08T05:20:09;19.97;81.77
71291;DHT22;59073;51.994;4.448;2023-09-08T05:22:34;19.92;82.48
71291;DHT22;59073;51.994;4.448;2023-09-08T05:25:00;20.00;82.81
71291;DHT22;59073;51.994;4.448;2023-09-08T05:27:26;20.08;82.87
71291;DHT22;59073;51.994;4.448;2023-09-08T05:29:51;20.43;81.98
71291;DHT22;59073;51.994;4.448;2023-09-08T05:32:17;21.00;81.12
71291;DHT22;59073;51.994;4.448;2023-09-08T05:34:42;21.50;78.66
71291;DHT22;59073;51.994;4.448;2023-09-08T05:37:07;21.96;76.23
71291;DHT22;59073;51.994;4.448;2023-09-08T05:39:34;22.10;75.82
71291;DHT22;59073;51.994;4.448;2023-09-08T05:41:59;22.42;74.78
71291;DHT22;59073;51.994;4.448;2023-09-08T05:44:25;22.63;73.59
71291;DHT22;59073;51.994;4.448;2023-09-08T05:46:50;22.40;74.91
71291;DHT22;59073;51.994;4.448;2023-09-08T05:49:15;22.22;75.35
71291;DHT22;59073;51.994;4.448;2023-09-08T05:51:43;22.24;74.95
71291;DHT22;59073;51.994;4.448;2023-09-08T05:54:09;22.13;75.01
71291;DHT22;59073;51.994;4.448;2023-09-08T05:56:36;22.13;74.81
71291;DHT22;59073;51.994;4.448;2023-09-08T05:59:02;22.19;75.15
71291;DHT22;59073;51.994;4.448;2023-09-08T06:01:28;22.37;74.46
71291;DHT22;59073;51.994;4.448;2023-09-08T06:03:53;22.47;73.99
71291;DHT22;59073;51.994;4.448;2023-09-08T06:06:20;22.63;74.24
71291;DHT22;59073;51.994;4.448;2023-09-08T06:08:46;23.00;72.94
71291;DHT22;59073;51.994;4.448;2023-09-08T06:11:12;23.14;72.16
71291;DHT22;59073;51.994;4.448;2023-09-08T06:13:37;23.25;71.39
71291;DHT22;59073;51.994;4.448;2023-09-08T06:16:02;23.69;70.83
71291;DHT22;59073;51.994;4.448;2023-09-08T06:18:28;24.40;68.84
71291;DHT22;59073;51.994;4.448;2023-09-08T06:20:57;24.68;67.35
71291;DHT22;59073;51.994;4.448;2023-09-08T06:23:23;24.73;67.76
71291;DHT22;59073;51.994;4.448;2023-09-08T06:25:49;24.68;67.69
71291;DHT22;59073;51.994;4.448;2023-09-08T06:28:15;24.82;67.34
71291;DHT22;59073;51.994;4.448;2023-09-08T06:30:40;24.71;67.80
71291;DHT22;59073;51.994;4.448;2023-09-08T06:33:10;25.18;66.53
71291;DHT22;59073;51.994;4.448;2023-09-08T06:35:35;25.06;67.02
71291;DHT22;59073;51.994;4.448;2023-09-08T06:38:01;25.03;67.32
71291;DHT22;59073;51.994;4.448;2023-09-08T06:40:29;24.61;68.11
71291;DHT22;59073;51.994;4.448;2023-09-08T06:42:54;24.57;69.12
71291;DHT22;59073;51.994;4.448;2023-09-08T06:45:20;24.95;68.47
71291;DHT22;59073;51.994;4.448;2023-09-08T06:47:46;25.42;66.46
71291;DHT22;59073;51.994;4.448;2023-09-08T06:50:11;25.67;65.09
71291;DHT22;59073;51.994;4.448;2023-09-08T06:52:37;25.88;65.01
71291;DHT22;59073;51.994;4.448;2023-09-08T06:55:02;25.70;65.57
71291;DHT22;59073;51.994;4.448;2023-09-08T06:57:28;25.59;65.09
71291;DHT22;59073;51.994;4.448;2023-09-08T06:59:53;25.75;66.14
71291;DHT22;59073;51.994;4.448;2023-09-08T07:02:19;26.24;65.55
71291;DHT22;59073;51.994;4.448;2023-09-08T07:04:44;26.57;64.05
71291;DHT22;59073;51.994;4.448;2023-09-08T07:07:09;26.82;63.16
71291;DHT22;59073;51.994;4.448;2023-09-08T07:09:36;26.72;62.75
71291;DHT22;59073;51.994;4.448;2023-09-08T07:12:06;26.82;62.93
71291;DHT22;59073;51.994;4.448;2023-09-08T07:14:31;26.57;63.78
71291;DHT22;59073;51.994;4.448;2023-09-08T07:16:58;26.72;63.94
71291;DHT22;59073;51.994;4.448;2023-09-08T07:19:23;27.13;62.11
71291;DHT22;59073;51.994;4.448;2023-09-08T07:21:49;27.18;62.20
71291;DHT22;59073;51.994;4.448;2023-09-08T07:24:14;27.14;63.20
71291;DHT22;59073;51.994;4.448;2023-09-08T07:26:40;26.78;63.72
71291;DHT22;59073;51.994;4.448;2023-09-08T07:29:05;26.24;66.49
71291;DHT22;59073;51.994;4.448;2023-09-08T07:31:31;26.09;66.39
71291;DHT22;59073;51.994;4.448;2023-09-08T07:33:56;26.00;67.30
71291;DHT22;59073;51.994;4.448;2023-09-08T07:36:21;26.09;66.76
71291;DHT22;59073;51.994;4.448;2023-09-08T07:38:47;26.09;66.99
71291;DHT22;59073;51.994;4.448;2023-09-08T07:41:12;26.36;67.17
71291;DHT22;59073;51.994;4.448;2023-09-08T07:43:38;26.82;65.26
71291;DHT22;59073;51.994;4.448;2023-09-08T07:46:06;27.03;65.58
71291;DHT22;59073;51.994;4.448;2023-09-08T07:48:32;27.01;65.54
71291;DHT22;59073;51.994;4.448;2023-09-08T07:50:57;27.24;64.98
71291;DHT22;59073;51.994;4.448;2023-09-08T07:53:26;27.54;64.91
71291;DHT22;59073;51.994;4.448;2023-09-08T07:55:51;27.65;64.89
71291;DHT22;59073;51.994;4.448;2023-09-08T07:58:16;27.86;63.21
71291;DHT22;59073;51.994;4.448;2023-09-08T08:00:42;28.08;63.80
71291;DHT22;59073;51.994;4.448;2023-09-08T08:03:07;28.30;63.83
71291;DHT22;59073;51.994;4.448;2023-09-08T08:05:33;28.33;63.04
71291;DHT22;59073;51.994;4.448;2023-09-08T08:07:59;28.57;62.10
71291;DHT22;59073;51.994;4.448;2023-09-08T08:10:25;28.68;60.72
71291;DHT22;59073;51.994;4.448;2023-09-08T08:12:50;28.78;60.27
71291;DHT22;59073;51.994;4.448;2023-09-08T08:15:15;28.91;60.93
71291;DHT22;59073;51.994;4.448;2023-09-08T08:17:41;29.01;60.61
71291;DHT22;59073;51.994;4.448;2023-09-08T08:20:11;29.07;60.37
71291;DHT22;59073;51.994;4.448;2023-09-08T08:22:42;29.12;59.97
71291;DHT22;59073;51.994;4.448;2023-09-08T08:25:07;29.26;59.37
71291;DHT22;59073;51.994;4.448;2023-09-08T08:27:33;29.41;59.27
71291;DHT22;59073;51.994;4.448;2023-09-08T08:29:59;29.58;59.59
71291;DHT22;59073;51.994;4.448;2023-09-08T08:32:27;29.67;58.57
71291;DHT22;59073;51.994;4.448;2023-09-08T08:34:52;29.62;58.75
71291;DHT22;59073;51.994;4.448;2023-09-08T08:37:18;29.76;57.76
71291;DHT22;59073;51.994;4.448;2023-09-08T08:39:43;29.97;58.10
71291;DHT22;59073;51.994;4.448;2023-09-08T08:42:10;30.20;58.30
71291;DHT22;59073;51.994;4.448;2023-09-08T08:44:38;30.48;57.28
71291;DHT22;59073;51.994;4.448;2023-09-08T08:47:07;30.45;58.29
71291;DHT22;59073;51.994;4.448;2023-09-08T08:49:33;30.79;57.09
71291;DHT22;59073;51.994;4.448;2023-09-08T08:52:00;31.00;54.26
71291;DHT22;59073;51.994;4.448;2023-09-08T08:54:29;31.08;55.47
71291;DHT22;59073;51.994;4.448;2023-09-08T08:56:55;30.96;55.36
71291;DHT22;59073;51.994;4.448;2023-09-08T08:59:20;30.61;56.45
71291;DHT22;59073;51.994;4.448;2023-09-08T09:01:48;30.78;56.55
71291;DHT22;59073;51.994;4.448;2023-09-08T09:04:14;31.13;54.54
71291;DHT22;59073;51.994;4.448;2023-09-08T09:06:40;31.23;55.96
71291;DHT22;59073;51.994;4.448;2023-09-08T09:09:06;30.96;56.71
71291;DHT22;59073;51.994;4.448;2023-09-08T09:11:33;30.68;57.92
71291;DHT22;59073;51.994;4.448;2023-09-08T09:13:58;30.99;56.86
71291;DHT22;59073;51.994;4.448;2023-09-08T09:16:24;31.08;56.19
71291;DHT22;59073;51.994;4.448;2023-09-08T09:18:58;30.98;56.32
71291;DHT22;59073;51.994;4.448;2023-09-08T09:21:24;30.83;56.43
71291;DHT22;59073;51.994;4.448;2023-09-08T09:24:05;31.00;57.06
71291;DHT22;59073;51.994;4.448;2023-09-08T09:26:31;31.02;56.67
71291;DHT22;59073;51.994;4.448;2023-09-08T09:28:56;31.46;56.15
71291;DHT22;59073;51.994;4.448;2023-09-08T09:31:25;31.57;55.52
71291;DHT22;59073;51.994;4.448;2023-09-08T09:34:04;31.73;54.21
71291;DHT22;59073;51.994;4.448;2023-09-08T09:36:30;31.69;53.78
71291;DHT22;59073;51.994;4.448;2023-09-08T09:39:00;31.82;53.70
71291;DHT22;59073;51.994;4.448;2023-09-08T09:41:28;31.78;54.04
71291;DHT22;59073;51.994;4.448;2023-09-08T09:43:54;31.80;54.13
71291;DHT22;59073;51.994;4.448;2023-09-08T09:46:20;31.69;52.70
71291;DHT22;59073;51.994;4.448;2023-09-08T09:48:50;31.78;52.76
71291;DHT22;59073;51.994;4.448;2023-09-08T09:51:19;32.15;53.21
71291;DHT22;59073;51.994;4.448;2023-09-08T09:53:45;32.28;53.26
71291;DHT22;59073;51.994;4.448;2023-09-08T09:56:11;32.46;52.21
71291;DHT22;59073;51.994;4.448;2023-09-08T09:58:40;32.38;51.29
71291;DHT22;59073;51.994;4.448;2023-09-08T10:01:07;32.49;53.88
71291;DHT22;59073;51.994;4.448;2023-09-08T10:03:33;32.62;49.78
71291;DHT22;59073;51.994;4.448;2023-09-08T10:05:59;32.42;52.55
71291;DHT22;59073;51.994;4.448;2023-09-08T10:08:25;32.40;51.71
71291;DHT22;59073;51.994;4.448;2023-09-08T10:10:50;32.25;51.16
71291;DHT22;59073;51.994;4.448;2023-09-08T10:13:27;32.40;52.00
71291;DHT22;59073;51.994;4.448;2023-09-08T10:15:58;32.18;53.61
71291;DHT22;59073;51.994;4.448;2023-09-08T10:18:24;32.08;52.91
71291;DHT22;59073;51.994;4.448;2023-09-08T10:20:53;31.92;53.72
71291;DHT22;59073;51.994;4.448;2023-09-08T10:23:35;32.11;51.25
71291;DHT22;59073;51.994;4.448;2023-09-08T10:26:03;31.92;52.61
71291;DHT22;59073;51.994;4.448;2023-09-08T10:28:32;32.09;53.26
71291;DHT22;59073;51.994;4.448;2023-09-08T10:30:59;32.52;52.90
71291;DHT22;59073;51.994;4.448;2023-09-08T10:33:26;32.52;49.99
71291;DHT22;59073;51.994;4.448;2023-09-08T10:35:53;32.53;51.52
71291;DHT22;59073;51.994;4.448;2023-09-08T10:38:26;32.69;51.05
71291;DHT22;59073;51.994;4.448;2023-09-08T10:40:53;32.63;50.60
71291;DHT22;59073;51.994;4.448;2023-09-08T10:43:19;32.51;51.45
71291;DHT22;59073;51.994;4.448;2023-09-08T10:45:46;32.59;51.65
71291;DHT22;59073;51.994;4.448;2023-09-08T10:48:12;32.72;51.44
71291;DHT22;59073;51.994;4.448;2023-09-08T10:50:40;32.73;50.00
71291;DHT22;59073;51.994;4.448;2023-09-08T10:53:14;32.45;51.18
71291;DHT22;59073;51.994;4.448;2023-09-08T10:55:47;32.35;49.30
71291;DHT22;59073;51.994;4.448;2023-09-08T10:58:28;32.25;52.04
71291;DHT22;59073;51.994;4.448;2023-09-08T11:00:59;32.08;55.48
71291;DHT22;59073;51.994;4.448;2023-09-08T11:03:46;31.76;53.94
71291;DHT22;59073;51.994;4.448;2023-09-08T11:06:18;31.36;53.67
71291;DHT22;59073;51.994;4.448;2023-09-08T11:08:44;31.41;53.72
71291;DHT22;59073;51.994;4.448;2023-09-08T11:11:12;31.61;53.26
71291;DHT22;59073;51.994;4.448;2023-09-08T11:13:38;32.09;52.57
71291;DHT22;59073;51.994;4.448;2023-09-08T11:16:05;32.32;49.56
71291;DHT22;59073;51.994;4.448;2023-09-08T11:18:32;32.18;52.77
71291;DHT22;59073;51.994;4.448;2023-09-08T11:21:02;32.35;51.74
71291;DHT22;59073;51.994;4.448;2023-09-08T11:23:29;32.53;53.10
71291;DHT22;59073;51.994;4.448;2023-09-08T11:25:54;32.36;51.88
71291;DHT22;59073;51.994;4.448;2023-09-08T11:28:24;32.35;52.78
71291;DHT22;59073;51.994;4.448;2023-09-08T11:30:50;32.59;52.69
71291;DHT22;59073;51.994;4.448;2023-09-08T11:33:17;32.76;51.97
71291;DHT22;59073;51.994;4.448;2023-09-08T11:35:46;32.75;49.94
71291;DHT22;59073;51.994;4.448;2023-09-08T11:38:12;32.49;49.76
71291;DHT22;59073;51.994;4.448;2023-09-08T11:40:38;32.18;52.39
71291;DHT22;59073;51.994;4.448;2023-09-08T11:43:05;32.17;52.17
71291;DHT22;59073;51.994;4.448;2023-09-08T11:45:34;32.11;51.32
71291;DHT22;59073;51.994;4.448;2023-09-08T11:48:00;32.19;51.49
71291;DHT22;59073;51.994;4.448;2023-09-08T11:50:26;32.33;53.56
71291;DHT22;59073;51.994;4.448;2023-09-08T11:52:52;32.49;49.45
71291;DHT22;59073;51.994;4.448;2023-09-08T11:55:20;32.63;51.64
71291;DHT22;59073;51.994;4.448;2023-09-08T11:57:49;32.46;51.79
71291;DHT22;59073;51.994;4.448;2023-09-08T12:00:18;32.22;52.96
71291;DHT22;59073;51.994;4.448;2023-09-08T12:02:45;32.31;50.21
71291;DHT22;59073;51.994;4.448;2023-09-08T12:05:26;32.53;52.75
71291;DHT22;59073;51.994;4.448;2023-09-08T12:07:54;32.42;49.21
71291;DHT22;59073;51.994;4.448;2023-09-08T12:10:21;32.55;48.94
71291;DHT22;59073;51.994;4.448;2023-09-08T12:12:53;32.31;49.74
71291;DHT22;59073;51.994;4.448;2023-09-08T12:15:49;32.32;51.44
71291;DHT22;59073;51.994;4.448;2023-09-08T12:18:15;32.62;51.48
71291;DHT22;59073;51.994;4.448;2023-09-08T12:20:41;32.39;49.24
71291;DHT22;59073;51.994;4.448;2023-09-08T12:23:17;32.31;47.60
71291;DHT22;59073;51.994;4.448;2023-09-08T12:25:50;32.09;48.36
71291;DHT22;59073;51.994;4.448;2023-09-08T12:28:20;32.00;49.64
71291;DHT22;59073;51.994;4.448;2023-09-08T12:30:46;32.02;51.17
71291;DHT22;59073;51.994;4.448;2023-09-08T12:33:13;32.04;52.04
71291;DHT22;59073;51.994;4.448;2023-09-08T12:35:43;32.32;52.66
71291;DHT22;59073;51.994;4.448;2023-09-08T12:38:10;32.52;51.66
71291;DHT22;59073;51.994;4.448;2023-09-08T12:40:37;32.53;49.53
71291;DHT22;59073;51.994;4.448;2023-09-08T12:43:03;32.19;49.71
71291;DHT22;59073;51.994;4.448;2023-09-08T12:45:29;32.25;46.72
71291;DHT22;59073;51.994;4.448;2023-09-08T12:47:58;32.31;52.08
71291;DHT22;59073;51.994;4.448;2023-09-08T12:50:25;32.09;50.63
71291;DHT22;59073;51.994;4.448;2023-09-08T12:52:50;31.67;50.31
71291;DHT22;59073;51.994;4.448;2023-09-08T12:55:16;31.60;52.02
71291;DHT22;59073;51.994;4.448;2023-09-08T12:57:41;31.64;52.26
71291;DHT22;59073;51.994;4.448;2023-09-08T13:00:07;31.87;50.95
71291;DHT22;59073;51.994;4.448;2023-09-08T13:02:33;32.08;52.05
71291;DHT22;59073;51.994;4.448;2023-09-08T13:04:59;32.00;50.23
71291;DHT22;59073;51.994;4.448;2023-09-08T13:07:26;32.02;48.43
71291;DHT22;59073;51.994;4.448;2023-09-08T13:09:51;31.54;48.11
71291;DHT22;59073;51.994;4.448;2023-09-08T13:12:17;31.67;51.15
71291;DHT22;59073;51.994;4.448;2023-09-08T13:14:43;31.57;50.75
71291;DHT22;59073;51.994;4.448;2023-09-08T13:17:10;31.53;51.34
71291;DHT22;59073;51.994;4.448;2023-09-08T13:19:35;31.59;51.70
71291;DHT22;59073;51.994;4.448;2023-09-08T13:22:06;31.88;50.41
71291;DHT22;59073;51.994;4.448;2023-09-08T13:24:31;32.08;50.68
71291;DHT22;59073;51.994;4.448;2023-09-08T13:26:57;32.28;48.82
71291;DHT22;59073;51.994;4.448;2023-09-08T13:29:22;32.24;51.59
71291;DHT22;59073;51.994;4.448;2023-09-08T13:31:48;32.01;49.76
71291;DHT22;59073;51.994;4.448;2023-09-08T13:34:14;32.07;50.46
71291;DHT22;59073;51.994;4.448;2023-09-08T13:36:39;32.11;48.94
71291;DHT22;59073;51.994;4.448;2023-09-08T13:39:05;32.32;51.49
71291;DHT22;59073;51.994;4.448;2023-09-08T13:41:49;32.27;49.47
71291;DHT22;59073;51.994;4.448;2023-09-08T13:44:16;32.12;49.96
71291;DHT22;59073;51.994;4.448;2023-09-08T13:46:42;31.94;48.85
71291;DHT22;59073;51.994;4.448;2023-09-08T13:49:08;31.98;47.88
71291;DHT22;59073;51.994;4.448;2023-09-08T13:51:33;31.95;47.44
71291;DHT22;59073;51.994;4.448;2023-09-08T13:53:59;31.81;48.09
71291;DHT22;59073;51.994;4.448;2023-09-08T13:56:24;31.13;47.55
71291;DHT22;59073;51.994;4.448;2023-09-08T13:58:51;31.25;50.62
71291;DHT22;59073;51.994;4.448;2023-09-08T14:01:17;31.37;50.59
71291;DHT22;59073;51.994;4.448;2023-09-08T14:03:43;31.59;51.63
71291;DHT22;59073;51.994;4.448;2023-09-08T14:06:08;31.66;51.00
71291;DHT22;59073;51.994;4.448;2023-09-08T14:08:33;31.64;48.70
71291;DHT22;59073;51.994;4.448;2023-09-08T14:10:59;31.61;47.21
71291;DHT22;59073;51.994;4.448;2023-09-08T14:13:24;31.76;50.26
71291;DHT22;59073;51.994;4.448;2023-09-08T14:15:50;31.71;49.66
71291;DHT22;59073;51.994;4.448;2023-09-08T14:18:15;31.81;50.47
71291;DHT22;59073;51.994;4.448;2023-09-08T14:20:41;31.63;48.87
71291;DHT22;59073;51.994;4.448;2023-09-08T14:23:07;31.51;46.13
71291;DHT22;59073;51.994;4.448;2023-09-08T14:25:34;31.61;48.26
71291;DHT22;59073;51.994;4.448;2023-09-08T14:27:59;31.51;46.81
71291;DHT22;59073;51.994;4.448;2023-09-08T14:30:28;31.41;48.91
71291;DHT22;59073;51.994;4.448;2023-09-08T14:32:54;31.47;49.91
71291;DHT22;59073;51.994;4.448;2023-09-08T14:35:19;31.46;49.17
71291;DHT22;59073;51.994;4.448;2023-09-08T14:37:48;31.49;49.25
71291;DHT22;59073;51.994;4.448;2023-09-08T14:40:15;31.31;46.33
71291;DHT22;59073;51.994;4.448;2023-09-08T14:42:40;31.16;47.56
71291;DHT22;59073;51.994;4.448;2023-09-08T14:45:06;31.25;49.75
71291;DHT22;59073;51.994;4.448;2023-09-08T14:47:31;31.22;48.24
71291;DHT22;59073;51.994;4.448;2023-09-08T14:49:57;31.12;48.23
71291;DHT22;59073;51.994;4.448;2023-09-08T14:52:23;31.15;50.60
71291;DHT22;59073;51.994;4.448;2023-09-08T14:54:49;30.98;48.63
71291;DHT22;59073;51.994;4.448;2023-09-08T14:57:14;30.95;51.32
71291;DHT22;59073;51.994;4.448;2023-09-08T14:59:40;30.96;51.45
71291;DHT22;59073;51.994;4.448;2023-09-08T15:02:07;31.06;51.87
71291;DHT22;59073;51.994;4.448;2023-09-08T15:04:33;31.15;50.45
71291;DHT22;59073;51.994;4.448;2023-09-08T15:06:58;31.03;48.53
71291;DHT22;59073;51.994;4.448;2023-09-08T15:09:24;31.12;49.94
71291;DHT22;59073;51.994;4.448;2023-09-08T15:11:49;31.15;49.79
71291;DHT22;59073;51.994;4.448;2023-09-08T15:14:15;31.16;49.00
71291;DHT22;59073;51.994;4.448;2023-09-08T15:16:40;31.08;49.52
71291;DHT22;59073;51.994;4.448;2023-09-08T15:19:05;31.00;49.84
71291;DHT22;59073;51.994;4.448;2023-09-08T15:21:31;30.96;49.39
71291;DHT22;59073;51.994;4.448;2023-09-08T15:23:58;30.96;49.72
71291;DHT22;59073;51.994;4.448;2023-09-08T15:26:24;31.06;50.11